Wedge Too — ZCII — position and weather

sailwx.info

Track history (hours):
 
Tides and Currents Weather Stations Pressure Air Temp Water Temp Dewpoint Dewpoint Depression Visibility Wind Speed Wind Dir Waves Ship Positions

Wedge Too

Last reported at 2016-Aug-28 20:18 UTC. Time now 2016-Aug-28 20:37 UTC.
Position N 43°44' E 007°25'.

Length 65 m; draft 3.4 m.

Type: Pleasure craft. MMSI: 319861000.

Date/timePositionNaut miles runAvg speedWind from/ knotsBaromVisibWave heightAir tempDewpointWater temp
2016-Aug-28 20:18N 43°44' E 007°25'0 0.0
2016-Aug-28 19:24N 43°44' E 007°25'0 0.0
2016-Aug-28 18:30N 43°44' E 007°25'0 0.0
2016-Aug-28 17:33N 43°44' E 007°25'0 0.0
2016-Aug-28 16:30N 43°44' E 007°25'0 0.0
2016-Aug-28 13:27N 43°44' E 007°25'3712.8
2016-Aug-28 10:33N 43°53' E 008°16'1413.9
2016-Aug-28 09:33N 43°59' E 008°33'1413.7
2016-Aug-28 08:33N 43°57' E 008°52'1413.7
2016-Aug-28 07:34N 43°57' E 009°11'1413.9
2016-Aug-28 06:34N 43°59' E 009°30'1413.7
2016-Aug-28 05:33N 44°01' E 009°49'6 5.4
2016-Aug-28 04:33N 44°06' E 009°52'0 0.0
2016-Aug-28 03:33N 44°06' E 009°52'0 0.0
2016-Aug-28 02:33N 44°06' E 009°52'0 0.0
2016-Aug-28 01:33N 44°06' E 009°52'0 0.0
2016-Aug-28 00:33N 44°06' E 009°52'0 0.0
2016-Aug-27 23:33N 44°06' E 009°52'0 0.0
2016-Aug-27 22:32N 44°06' E 009°52'0 0.0
2016-Aug-27 21:33N 44°06' E 009°52'0 0.0
2016-Aug-27 20:32N 44°06' E 009°52'0 0.0
2016-Aug-27 19:33N 44°06' E 009°52'0 0.0
2016-Aug-27 18:33N 44°06' E 009°52'0 0.0
2016-Aug-27 17:33N 44°06' E 009°52'0 0.0
2016-Aug-27 16:33N 44°06' E 009°52'0 0.0
2016-Aug-27 15:33N 44°06' E 009°52'0 0.0
2016-Aug-27 14:29N 44°06' E 009°52'0 0.0
2016-Aug-27 13:33N 44°06' E 009°52'0 0.0
2016-Aug-27 12:33N 44°06' E 009°52'0 0.0
2016-Aug-27 11:33N 44°06' E 009°52'4 4.5
2016-Aug-27 10:33N 44°01' E 009°52'1313.1
2016-Aug-27 09:34N 44°05' E 009°35'1414.3
2016-Aug-27 08:34N 44°15' E 009°20'6 5.8
2016-Aug-27 07:30N 44°18' E 009°13'0 0.0
2016-Aug-27 06:29N 44°18' E 009°13'0 0.0
2016-Aug-27 04:13N 44°18' E 009°13'0 0.0
2016-Aug-27 03:25N 44°18' E 009°13'0 0.0
2016-Aug-27 02:29N 44°18' E 009°13'0 0.0
2016-Aug-27 01:30N 44°18' E 009°13'0 0.0
2016-Aug-27 00:31N 44°18' E 009°13'0 0.0
2016-Aug-26 22:27N 44°18' E 009°13'0 0.0
2016-Aug-26 21:14N 44°18' E 009°13'0 0.0
2016-Aug-26 20:13N 44°18' E 009°13'0 0.0
2016-Aug-26 19:27N 44°18' E 009°13'0 0.0
2016-Aug-26 18:24N 44°18' E 009°13'0 0.0
2016-Aug-26 17:33N 44°18' E 009°13'0 0.0
2016-Aug-26 16:33N 44°18' E 009°13'0 0.0
2016-Aug-26 15:30N 44°18' E 009°13'0 0.0
2016-Aug-26 14:33N 44°18' E 009°13'0 0.0
2016-Aug-26 13:24N 44°18' E 009°13'0 0.0
2016-Aug-26 12:32N 44°18' E 009°13'0 0.0
2016-Aug-26 11:33N 44°18' E 009°13'0 0.0
2016-Aug-26 10:33N 44°18' E 009°13'0 0.0
2016-Aug-26 08:32N 44°18' E 009°13'0 0.0
2016-Aug-25 21:17N 44°18' E 009°13'0 0.0
2016-Aug-25 20:26N 44°18' E 009°13'0 0.0
2016-Aug-25 19:12N 44°18' E 009°13'0 0.0
2016-Aug-25 16:29N 44°18' E 009°13'0 0.0
2016-Aug-25 15:32N 44°18' E 009°13'0 0.2
2016-Aug-25 14:33N 44°18' E 009°13'9 9.4
2016-Aug-25 13:34N 44°13' E 009°02'1414.2
2016-Aug-25 12:34N 44°07' E 008°44'1413.9
2016-Aug-25 11:34N 44°02' E 008°26'1713.9
2016-Aug-25 10:21N 43°53' E 008°06'1314.3
2016-Aug-25 09:27N 43°48' E 007°50'1614.5
2016-Aug-25 08:21N 43°45' E 007°28'2 2.7
2016-Aug-25 07:33N 43°44' E 007°25'0 0.0
2016-Aug-25 06:33N 43°44' E 007°25'0 0.0
2016-Aug-24 23:33N 43°44' E 007°25'0 0.0
2016-Aug-24 22:33N 43°44' E 007°25'0 0.0
2016-Aug-24 19:09N 43°44' E 007°25'0 0.0
2016-Aug-24 08:20N 43°44' E 007°25'0 0.0
2016-Aug-24 07:32N 43°44' E 007°25'0 0.0
2016-Aug-24 04:33N 43°44' E 007°25'0 0.0
2016-Aug-23 17:29N 43°44' E 007°25'0 0.0
2016-Aug-23 16:29N 43°44' E 007°25'0 0.0
2016-Aug-23 13:32N 43°44' E 007°25'0 0.0
2016-Aug-23 12:23N 43°44' E 007°25'0 0.0
2016-Aug-23 02:32N 43°44' E 007°25'0 0.0
2016-Aug-22 03:14N 43°44' E 007°25'0 0.0
2016-Aug-22 02:26N 43°44' E 007°25'0 0.0
2016-Aug-22 01:32N 43°44' E 007°25'0 0.0
2016-Aug-22 00:32N 43°44' E 007°25'0 0.0
2016-Aug-21 23:29N 43°44' E 007°25'0 0.0
2016-Aug-21 22:32N 43°44' E 007°25'0 0.0
2016-Aug-21 20:32N 43°44' E 007°25'0 0.0
2016-Aug-21 16:28N 43°44' E 007°25'3 3.2
2016-Aug-21 15:32N 43°43' E 007°22'0 0.0
2016-Aug-21 14:32N 43°43' E 007°22'0 0.0
2016-Aug-21 13:32N 43°43' E 007°22'0 0.0
2016-Aug-21 12:32N 43°43' E 007°22'0 0.0
2016-Aug-21 11:32N 43°43' E 007°22'1 0.6
2016-Aug-21 10:33N 43°42' E 007°21'1 1.0
2016-Aug-21 09:33N 43°42' E 007°20'2 1.7
2016-Aug-21 08:33N 43°42' E 007°23'3 0.1
2016-Aug-20 13:28N 43°44' E 007°25'0 0.0
2016-Aug-20 12:19N 43°44' E 007°25'0 0.0
2016-Aug-19 05:33N 43°44' E 007°25'0 0.0
2016-Aug-19 04:21N 43°44' E 007°25'  
Track history (hours):
 
Tides and Currents Weather Stations Pressure Air Temp Water Temp Dewpoint Dewpoint Depression Visibility Wind Speed Wind Dir Waves Ship Positions

Wedge Too

Last reported at 2016-Aug-28 20:18 UTC. Time now 2016-Aug-28 20:37 UTC.
Position N 43°44' E 007°25'.

Length 65 m; draft 3.4 m.

Type: Pleasure craft. MMSI: 319861000.

Date/timePositionNaut miles runAvg speedWind from/ knotsBaromVisibWave heightAir tempDewpointWater temp
2016-Aug-28 20:18N 43°44' E 007°25'0 0.0
2016-Aug-28 19:24N 43°44' E 007°25'0 0.0
2016-Aug-28 18:30N 43°44' E 007°25'0 0.0
2016-Aug-28 17:33N 43°44' E 007°25'0 0.0
2016-Aug-28 16:30N 43°44' E 007°25'0 0.0
2016-Aug-28 13:27N 43°44' E 007°25'3712.8
2016-Aug-28 10:33N 43°53' E 008°16'1413.9
2016-Aug-28 09:33N 43°59' E 008°33'1413.7
2016-Aug-28 08:33N 43°57' E 008°52'1413.7
2016-Aug-28 07:34N 43°57' E 009°11'1413.9
2016-Aug-28 06:34N 43°59' E 009°30'1413.7
2016-Aug-28 05:33N 44°01' E 009°49'6 5.4
2016-Aug-28 04:33N 44°06' E 009°52'0 0.0
2016-Aug-28 03:33N 44°06' E 009°52'0 0.0
2016-Aug-28 02:33N 44°06' E 009°52'0 0.0
2016-Aug-28 01:33N 44°06' E 009°52'0 0.0
2016-Aug-28 00:33N 44°06' E 009°52'0 0.0
2016-Aug-27 23:33N 44°06' E 009°52'0 0.0
2016-Aug-27 22:32N 44°06' E 009°52'0 0.0
2016-Aug-27 21:33N 44°06' E 009°52'0 0.0
2016-Aug-27 20:32N 44°06' E 009°52'0 0.0
2016-Aug-27 19:33N 44°06' E 009°52'0 0.0
2016-Aug-27 18:33N 44°06' E 009°52'0 0.0
2016-Aug-27 17:33N 44°06' E 009°52'0 0.0
2016-Aug-27 16:33N 44°06' E 009°52'0 0.0
2016-Aug-27 15:33N 44°06' E 009°52'0 0.0
2016-Aug-27 14:29N 44°06' E 009°52'0 0.0
2016-Aug-27 13:33N 44°06' E 009°52'0 0.0
2016-Aug-27 12:33N 44°06' E 009°52'0 0.0
2016-Aug-27 11:33N 44°06' E 009°52'4 4.5
2016-Aug-27 10:33N 44°01' E 009°52'1313.1
2016-Aug-27 09:34N 44°05' E 009°35'1414.3
2016-Aug-27 08:34N 44°15' E 009°20'6 5.8
2016-Aug-27 07:30N 44°18' E 009°13'0 0.0
2016-Aug-27 06:29N 44°18' E 009°13'0 0.0
2016-Aug-27 04:13N 44°18' E 009°13'0 0.0
2016-Aug-27 03:25N 44°18' E 009°13'0 0.0
2016-Aug-27 02:29N 44°18' E 009°13'0 0.0
2016-Aug-27 01:30N 44°18' E 009°13'0 0.0
2016-Aug-27 00:31N 44°18' E 009°13'0 0.0
2016-Aug-26 22:27N 44°18' E 009°13'0 0.0
2016-Aug-26 21:14N 44°18' E 009°13'0 0.0
2016-Aug-26 20:13N 44°18' E 009°13'0 0.0
2016-Aug-26 19:27N 44°18' E 009°13'0 0.0
2016-Aug-26 18:24N 44°18' E 009°13'0 0.0
2016-Aug-26 17:33N 44°18' E 009°13'0 0.0
2016-Aug-26 16:33N 44°18' E 009°13'0 0.0
2016-Aug-26 15:30N 44°18' E 009°13'0 0.0
2016-Aug-26 14:33N 44°18' E 009°13'0 0.0
2016-Aug-26 13:24N 44°18' E 009°13'0 0.0
2016-Aug-26 12:32N 44°18' E 009°13'0 0.0
2016-Aug-26 11:33N 44°18' E 009°13'0 0.0
2016-Aug-26 10:33N 44°18' E 009°13'0 0.0
2016-Aug-26 08:32N 44°18' E 009°13'0 0.0
2016-Aug-25 21:17N 44°18' E 009°13'0 0.0
2016-Aug-25 20:26N 44°18' E 009°13'0 0.0
2016-Aug-25 19:12N 44°18' E 009°13'0 0.0
2016-Aug-25 16:29N 44°18' E 009°13'0 0.0
2016-Aug-25 15:32N 44°18' E 009°13'0 0.2
2016-Aug-25 14:33N 44°18' E 009°13'9 9.4
2016-Aug-25 13:34N 44°13' E 009°02'1414.2
2016-Aug-25 12:34N 44°07' E 008°44'1413.9
2016-Aug-25 11:34N 44°02' E 008°26'1713.9
2016-Aug-25 10:21N 43°53' E 008°06'1314.3
2016-Aug-25 09:27N 43°48' E 007°50'1614.5
2016-Aug-25 08:21N 43°45' E 007°28'2 2.7
2016-Aug-25 07:33N 43°44' E 007°25'0 0.0
2016-Aug-25 06:33N 43°44' E 007°25'0 0.0
2016-Aug-24 23:33N 43°44' E 007°25'0 0.0
2016-Aug-24 22:33N 43°44' E 007°25'0 0.0
2016-Aug-24 19:09N 43°44' E 007°25'0 0.0
2016-Aug-24 08:20N 43°44' E 007°25'0 0.0
2016-Aug-24 07:32N 43°44' E 007°25'0 0.0
2016-Aug-24 04:33N 43°44' E 007°25'0 0.0
2016-Aug-23 17:29N 43°44' E 007°25'0 0.0
2016-Aug-23 16:29N 43°44' E 007°25'0 0.0
2016-Aug-23 13:32N 43°44' E 007°25'0 0.0
2016-Aug-23 12:23N 43°44' E 007°25'0 0.0
2016-Aug-23 02:32N 43°44' E 007°25'0 0.0
2016-Aug-22 03:14N 43°44' E 007°25'0 0.0
2016-Aug-22 02:26N 43°44' E 007°25'0 0.0
2016-Aug-22 01:32N 43°44' E 007°25'0 0.0
2016-Aug-22 00:32N 43°44' E 007°25'0 0.0
2016-Aug-21 23:29N 43°44' E 007°25'0 0.0
2016-Aug-21 22:32N 43°44' E 007°25'0 0.0
2016-Aug-21 20:32N 43°44' E 007°25'0 0.0
2016-Aug-21 16:28N 43°44' E 007°25'3 3.2
2016-Aug-21 15:32N 43°43' E 007°22'0 0.0
2016-Aug-21 14:32N 43°43' E 007°22'0 0.0
2016-Aug-21 13:32N 43°43' E 007°22'0 0.0
2016-Aug-21 12:32N 43°43' E 007°22'0 0.0
2016-Aug-21 11:32N 43°43' E 007°22'1 0.6
2016-Aug-21 10:33N 43°42' E 007°21'1 1.0
2016-Aug-21 09:33N 43°42' E 007°20'2 1.7
2016-Aug-21 08:33N 43°42' E 007°23'3 0.1
2016-Aug-20 13:28N 43°44' E 007°25'0 0.0
2016-Aug-20 12:19N 43°44' E 007°25'0 0.0
2016-Aug-19 05:33N 43°44' E 007°25'0 0.0
2016-Aug-19 04:21N 43°44' E 007°25'  

Dump ship's entire track history